sensor_id;sensor_type;location;lat;lon;timestamp;temperature;humidity
41987;DHT22;28361;50.740;7.084;2022-10-31T00:00:50;13.70;99.90
41987;DHT22;28361;50.740;7.084;2022-10-31T00:03:16;13.70;99.90
41987;DHT22;28361;50.740;7.084;2022-10-31T00:05:44;13.80;99.90
41987;DHT22;28361;50.740;7.084;2022-10-31T00:08:10;13.70;99.90
41987;DHT22;28361;50.740;7.084;2022-10-31T00:10:43;13.70;99.90
41987;DHT22;28361;50.740;7.084;2022-10-31T00:13:11;13.70;99.90
41987;DHT22;28361;50.740;7.084;2022-10-31T00:15:38;13.60;99.90
41987;DHT22;28361;50.740;7.084;2022-10-31T00:18:05;13.60;99.90
41987;DHT22;28361;50.740;7.084;2022-10-31T00:20:31;13.60;99.90
41987;DHT22;28361;50.740;7.084;2022-10-31T00:22:58;13.50;99.90
41987;DHT22;28361;50.740;7.084;2022-10-31T00:25:24;13.50;99.90
41987;DHT22;28361;50.740;7.084;2022-10-31T00:27:50;13.50;99.90
41987;DHT22;28361;50.740;7.084;2022-10-31T00:30:15;13.50;99.90
41987;DHT22;28361;50.740;7.084;2022-10-31T00:32:41;13.50;99.90
41987;DHT22;28361;50.740;7.084;2022-10-31T00:35:07;13.50;99.90
41987;DHT22;28361;50.740;7.084;2022-10-31T00:37:32;13.40;99.90
41987;DHT22;28361;50.740;7.084;2022-10-31T00:39:58;13.50;99.90
41987;DHT22;28361;50.740;7.084;2022-10-31T00:42:24;13.50;99.90
41987;DHT22;28361;50.740;7.084;2022-10-31T00:44:50;13.50;99.90
41987;DHT22;28361;50.740;7.084;2022-10-31T00:47:15;13.50;99.90
41987;DHT22;28361;50.740;7.084;2022-10-31T00:49:41;13.50;99.90
41987;DHT22;28361;50.740;7.084;2022-10-31T00:52:07;13.50;99.90
41987;DHT22;28361;50.740;7.084;2022-10-31T00:54:33;13.50;99.90
41987;DHT22;28361;50.740;7.084;2022-10-31T00:56:58;13.50;99.90
41987;DHT22;28361;50.740;7.084;2022-10-31T00:59:24;13.60;99.90
41987;DHT22;28361;50.740;7.084;2022-10-31T01:01:50;13.50;99.90
41987;DHT22;28361;50.740;7.084;2022-10-31T01:04:16;13.50;99.90
41987;DHT22;28361;50.740;7.084;2022-10-31T01:06:41;13.50;99.90
41987;DHT22;28361;50.740;7.084;2022-10-31T01:09:07;13.50;99.90
41987;DHT22;28361;50.740;7.084;2022-10-31T01:11:33;13.40;99.90
41987;DHT22;28361;50.740;7.084;2022-10-31T01:13:59;13.40;99.90
41987;DHT22;28361;50.740;7.084;2022-10-31T01:16:25;13.40;99.90
41987;DHT22;28361;50.740;7.084;2022-10-31T01:18:52;13.40;99.90
41987;DHT22;28361;50.740;7.084;2022-10-31T01:21:22;13.50;99.90
41987;DHT22;28361;50.740;7.084;2022-10-31T01:23:49;13.60;99.90
41987;DHT22;28361;50.740;7.084;2022-10-31T01:26:18;13.60;99.90
41987;DHT22;28361;50.740;7.084;2022-10-31T01:28:47;13.60;99.90
41987;DHT22;28361;50.740;7.084;2022-10-31T01:31:14;13.50;99.90
41987;DHT22;28361;50.740;7.084;2022-10-31T01:33:39;13.60;99.90
41987;DHT22;28361;50.740;7.084;2022-10-31T01:38:39;13.60;99.90
41987;DHT22;28361;50.740;7.084;2022-10-31T01:41:05;13.50;99.90
41987;DHT22;28361;50.740;7.084;2022-10-31T01:46:12;13.40;99.90
41987;DHT22;28361;50.740;7.084;2022-10-31T01:48:39;13.40;99.90
41987;DHT22;28361;50.740;7.084;2022-10-31T01:51:06;13.40;99.90
41987;DHT22;28361;50.740;7.084;2022-10-31T01:53:32;13.40;99.90
41987;DHT22;28361;50.740;7.084;2022-10-31T01:55:59;13.50;99.90
41987;DHT22;28361;50.740;7.084;2022-10-31T01:58:28;13.40;99.90
41987;DHT22;28361;50.740;7.084;2022-10-31T02:00:59;13.40;99.90
41987;DHT22;28361;50.740;7.084;2022-10-31T02:03:25;13.30;99.90
41987;DHT22;28361;50.740;7.084;2022-10-31T02:05:54;13.30;99.90
41987;DHT22;28361;50.740;7.084;2022-10-31T02:08:28;13.30;99.90
41987;DHT22;28361;50.740;7.084;2022-10-31T02:10:55;13.30;99.90
41987;DHT22;28361;50.740;7.084;2022-10-31T02:13:22;13.30;99.90
41987;DHT22;28361;50.740;7.084;2022-10-31T02:15:58;13.30;99.90
41987;DHT22;28361;50.740;7.084;2022-10-31T02:18:27;13.30;99.90
41987;DHT22;28361;50.740;7.084;2022-10-31T02:21:02;13.30;99.90
41987;DHT22;28361;50.740;7.084;2022-10-31T02:29:15;13.30;99.90
41987;DHT22;28361;50.740;7.084;2022-10-31T02:32:07;13.30;99.90
41987;DHT22;28361;50.740;7.084;2022-10-31T02:34:52;13.30;99.90
41987;DHT22;28361;50.740;7.084;2022-10-31T02:37:37;13.20;99.90
41987;DHT22;28361;50.740;7.084;2022-10-31T02:48:18;13.20;99.90
41987;DHT22;28361;50.740;7.084;2022-10-31T02:50:55;13.20;99.90
41987;DHT22;28361;50.740;7.084;2022-10-31T02:53:22;13.20;99.90
41987;DHT22;28361;50.740;7.084;2022-10-31T02:55:58;13.10;99.90
41987;DHT22;28361;50.740;7.084;2022-10-31T02:58:26;13.10;99.90
41987;DHT22;28361;50.740;7.084;2022-10-31T03:06:13;13.10;99.90
41987;DHT22;28361;50.740;7.084;2022-10-31T03:08:53;13.10;99.90
41987;DHT22;28361;50.740;7.084;2022-10-31T03:11:24;13.10;99.90
41987;DHT22;28361;50.740;7.084;2022-10-31T03:14:08;13.10;99.90
41987;DHT22;28361;50.740;7.084;2022-10-31T03:16:48;13.10;99.90
41987;DHT22;28361;50.740;7.084;2022-10-31T03:19:32;13.00;99.90
41987;DHT22;28361;50.740;7.084;2022-10-31T03:22:07;13.00;99.90
41987;DHT22;28361;50.740;7.084;2022-10-31T03:24:37;13.10;99.90
41987;DHT22;28361;50.740;7.084;2022-10-31T03:27:06;13.10;99.90
41987;DHT22;28361;50.740;7.084;2022-10-31T03:29:36;13.20;99.90
41987;DHT22;28361;50.740;7.084;2022-10-31T03:32:21;13.20;99.90
41987;DHT22;28361;50.740;7.084;2022-10-31T03:34:49;13.20;99.90
41987;DHT22;28361;50.740;7.084;2022-10-31T03:37:18;13.10;99.90
41987;DHT22;28361;50.740;7.084;2022-10-31T03:39:46;13.10;99.90
41987;DHT22;28361;50.740;7.084;2022-10-31T03:42:20;13.00;99.90
41987;DHT22;28361;50.740;7.084;2022-10-31T03:45:00;13.00;99.90
41987;DHT22;28361;50.740;7.084;2022-10-31T03:47:27;13.00;99.90
41987;DHT22;28361;50.740;7.084;2022-10-31T03:49:53;13.00;99.90
41987;DHT22;28361;50.740;7.084;2022-10-31T03:55:39;12.90;99.90
41987;DHT22;28361;50.740;7.084;2022-10-31T04:00:44;12.80;99.90
41987;DHT22;28361;50.740;7.084;2022-10-31T04:03:15;12.80;99.90
41987;DHT22;28361;50.740;7.084;2022-10-31T04:05:44;12.90;99.90
41987;DHT22;28361;50.740;7.084;2022-10-31T04:08:16;12.80;99.90
41987;DHT22;28361;50.740;7.084;2022-10-31T04:10:47;12.80;99.90
41987;DHT22;28361;50.740;7.084;2022-10-31T04:13:14;12.70;99.90
41987;DHT22;28361;50.740;7.084;2022-10-31T04:15:45;12.80;99.90
41987;DHT22;28361;50.740;7.084;2022-10-31T04:18:11;12.70;99.90
41987;DHT22;28361;50.740;7.084;2022-10-31T04:20:39;12.70;99.90
41987;DHT22;28361;50.740;7.084;2022-10-31T04:23:17;12.70;99.90
41987;DHT22;28361;50.740;7.084;2022-10-31T04:25:43;12.70;99.90
41987;DHT22;28361;50.740;7.084;2022-10-31T04:28:09;12.70;99.90
41987;DHT22;28361;50.740;7.084;2022-10-31T04:30:35;12.70;99.90
41987;DHT22;28361;50.740;7.084;2022-10-31T04:33:00;12.60;99.90
41987;DHT22;28361;50.740;7.084;2022-10-31T04:35:26;12.60;99.90
41987;DHT22;28361;50.740;7.084;2022-10-31T04:37:52;12.60;99.90
41987;DHT22;28361;50.740;7.084;2022-10-31T04:40:17;12.60;99.90
41987;DHT22;28361;50.740;7.084;2022-10-31T04:42:43;12.60;99.90
41987;DHT22;28361;50.740;7.084;2022-10-31T04:45:09;12.50;99.90
41987;DHT22;28361;50.740;7.084;2022-10-31T04:47:34;12.50;99.90
41987;DHT22;28361;50.740;7.084;2022-10-31T04:50:01;12.50;99.90
41987;DHT22;28361;50.740;7.084;2022-10-31T04:52:27;12.50;99.90
41987;DHT22;28361;50.740;7.084;2022-10-31T04:54:53;12.50;99.90
41987;DHT22;28361;50.740;7.084;2022-10-31T04:57:19;12.50;99.90
41987;DHT22;28361;50.740;7.084;2022-10-31T04:59:44;12.50;99.90
41987;DHT22;28361;50.740;7.084;2022-10-31T05:02:10;12.50;99.90
41987;DHT22;28361;50.740;7.084;2022-10-31T05:04:36;12.50;99.90
41987;DHT22;28361;50.740;7.084;2022-10-31T05:07:01;12.50;99.90
41987;DHT22;28361;50.740;7.084;2022-10-31T05:09:27;12.50;99.90
41987;DHT22;28361;50.740;7.084;2022-10-31T05:11:53;12.50;99.90
41987;DHT22;28361;50.740;7.084;2022-10-31T05:14:21;12.60;99.90
41987;DHT22;28361;50.740;7.084;2022-10-31T05:16:47;12.50;99.90
41987;DHT22;28361;50.740;7.084;2022-10-31T05:19:12;12.50;99.90
41987;DHT22;28361;50.740;7.084;2022-10-31T05:21:38;12.40;99.90
41987;DHT22;28361;50.740;7.084;2022-10-31T05:24:04;12.40;99.90
41987;DHT22;28361;50.740;7.084;2022-10-31T05:26:30;12.40;99.90
41987;DHT22;28361;50.740;7.084;2022-10-31T05:28:55;12.50;99.90
41987;DHT22;28361;50.740;7.084;2022-10-31T05:31:21;12.40;99.90
41987;DHT22;28361;50.740;7.084;2022-10-31T05:33:46;12.30;99.90
41987;DHT22;28361;50.740;7.084;2022-10-31T05:36:12;12.30;99.90
41987;DHT22;28361;50.740;7.084;2022-10-31T05:38:38;12.40;99.90
41987;DHT22;28361;50.740;7.084;2022-10-31T05:41:04;12.30;99.90
41987;DHT22;28361;50.740;7.084;2022-10-31T05:43:30;12.30;99.90
41987;DHT22;28361;50.740;7.084;2022-10-31T05:45:56;12.30;99.90
41987;DHT22;28361;50.740;7.084;2022-10-31T05:48:22;12.30;99.90
41987;DHT22;28361;50.740;7.084;2022-10-31T05:50:48;12.30;99.90
41987;DHT22;28361;50.740;7.084;2022-10-31T05:53:15;12.30;99.90
41987;DHT22;28361;50.740;7.084;2022-10-31T05:55:42;12.20;99.90
41987;DHT22;28361;50.740;7.084;2022-10-31T05:58:09;12.20;99.90
41987;DHT22;28361;50.740;7.084;2022-10-31T06:00:35;12.10;99.90
41987;DHT22;28361;50.740;7.084;2022-10-31T06:03:02;12.10;99.90
41987;DHT22;28361;50.740;7.084;2022-10-31T06:05:29;12.00;99.90
41987;DHT22;28361;50.740;7.084;2022-10-31T06:07:55;11.90;99.90
41987;DHT22;28361;50.740;7.084;2022-10-31T06:10:21;12.00;99.90
41987;DHT22;28361;50.740;7.084;2022-10-31T06:12:47;12.00;99.90
41987;DHT22;28361;50.740;7.084;2022-10-31T06:15:13;12.00;99.90
41987;DHT22;28361;50.740;7.084;2022-10-31T06:17:39;12.00;99.90
41987;DHT22;28361;50.740;7.084;2022-10-31T06:20:05;12.00;99.90
41987;DHT22;28361;50.740;7.084;2022-10-31T06:22:31;11.90;99.90
41987;DHT22;28361;50.740;7.084;2022-10-31T06:24:57;11.90;99.90
41987;DHT22;28361;50.740;7.084;2022-10-31T06:27:23;11.90;99.90
41987;DHT22;28361;50.740;7.084;2022-10-31T06:29:49;12.00;99.90
41987;DHT22;28361;50.740;7.084;2022-10-31T06:32:15;12.00;99.90
41987;DHT22;28361;50.740;7.084;2022-10-31T06:34:41;12.10;99.90
41987;DHT22;28361;50.740;7.084;2022-10-31T06:37:09;12.10;99.90
41987;DHT22;28361;50.740;7.084;2022-10-31T06:39:35;12.10;99.90
41987;DHT22;28361;50.740;7.084;2022-10-31T06:42:01;12.20;99.90
41987;DHT22;28361;50.740;7.084;2022-10-31T06:44:27;12.30;99.90
41987;DHT22;28361;50.740;7.084;2022-10-31T06:46:53;12.30;99.90
41987;DHT22;28361;50.740;7.084;2022-10-31T06:49:18;12.40;99.90
41987;DHT22;28361;50.740;7.084;2022-10-31T06:51:47;12.40;99.90
41987;DHT22;28361;50.740;7.084;2022-10-31T06:54:14;12.50;99.90
41987;DHT22;28361;50.740;7.084;2022-10-31T06:56:40;12.60;99.90
41987;DHT22;28361;50.740;7.084;2022-10-31T06:59:05;12.70;99.90
41987;DHT22;28361;50.740;7.084;2022-10-31T07:01:31;12.80;99.90
41987;DHT22;28361;50.740;7.084;2022-10-31T07:03:57;12.80;99.90
41987;DHT22;28361;50.740;7.084;2022-10-31T07:06:22;12.80;99.90
41987;DHT22;28361;50.740;7.084;2022-10-31T07:08:48;12.80;99.90
41987;DHT22;28361;50.740;7.084;2022-10-31T07:11:14;12.80;99.90
41987;DHT22;28361;50.740;7.084;2022-10-31T07:13:40;12.80;99.90
41987;DHT22;28361;50.740;7.084;2022-10-31T07:16:06;12.80;99.90
41987;DHT22;28361;50.740;7.084;2022-10-31T07:18:33;12.90;99.90
41987;DHT22;28361;50.740;7.084;2022-10-31T07:20:59;13.00;99.90
41987;DHT22;28361;50.740;7.084;2022-10-31T07:23:24;13.00;99.90
41987;DHT22;28361;50.740;7.084;2022-10-31T07:25:55;13.00;99.90
41987;DHT22;28361;50.740;7.084;2022-10-31T07:28:25;13.10;99.90
41987;DHT22;28361;50.740;7.084;2022-10-31T07:30:52;13.20;99.90
41987;DHT22;28361;50.740;7.084;2022-10-31T07:33:18;13.20;99.90
41987;DHT22;28361;50.740;7.084;2022-10-31T07:35:44;13.30;99.90
41987;DHT22;28361;50.740;7.084;2022-10-31T07:38:11;13.30;99.90
41987;DHT22;28361;50.740;7.084;2022-10-31T07:40:37;13.30;99.90
41987;DHT22;28361;50.740;7.084;2022-10-31T07:43:03;13.40;99.90
41987;DHT22;28361;50.740;7.084;2022-10-31T07:45:29;13.50;99.90
41987;DHT22;28361;50.740;7.084;2022-10-31T07:47:55;13.50;99.90
41987;DHT22;28361;50.740;7.084;2022-10-31T07:50:25;13.60;99.90
41987;DHT22;28361;50.740;7.084;2022-10-31T07:53:08;13.70;99.90
41987;DHT22;28361;50.740;7.084;2022-10-31T07:55:34;13.70;99.90
41987;DHT22;28361;50.740;7.084;2022-10-31T07:58:07;13.70;99.90
41987;DHT22;28361;50.740;7.084;2022-10-31T08:00:35;13.70;99.90
41987;DHT22;28361;50.740;7.084;2022-10-31T08:03:14;13.70;99.90
41987;DHT22;28361;50.740;7.084;2022-10-31T08:05:40;13.80;99.90
41987;DHT22;28361;50.740;7.084;2022-10-31T08:08:07;13.80;99.90
41987;DHT22;28361;50.740;7.084;2022-10-31T08:10:34;13.90;99.90
41987;DHT22;28361;50.740;7.084;2022-10-31T08:13:05;14.10;99.90
41987;DHT22;28361;50.740;7.084;2022-10-31T08:15:31;14.20;99.90
41987;DHT22;28361;50.740;7.084;2022-10-31T08:17:57;14.30;99.90
41987;DHT22;28361;50.740;7.084;2022-10-31T08:20:23;14.40;99.90
41987;DHT22;28361;50.740;7.084;2022-10-31T08:22:53;14.40;99.90
41987;DHT22;28361;50.740;7.084;2022-10-31T08:25:19;14.40;99.90
41987;DHT22;28361;50.740;7.084;2022-10-31T08:27:49;14.30;99.90
41987;DHT22;28361;50.740;7.084;2022-10-31T08:30:16;14.40;99.90
41987;DHT22;28361;50.740;7.084;2022-10-31T08:32:41;14.50;99.90
41987;DHT22;28361;50.740;7.084;2022-10-31T08:35:07;14.60;99.90
41987;DHT22;28361;50.740;7.084;2022-10-31T08:37:33;14.60;99.90
41987;DHT22;28361;50.740;7.084;2022-10-31T08:39:59;14.70;99.90
41987;DHT22;28361;50.740;7.084;2022-10-31T08:42:24;14.60;99.90
41987;DHT22;28361;50.740;7.084;2022-10-31T08:44:50;14.50;99.90
41987;DHT22;28361;50.740;7.084;2022-10-31T08:47:16;14.50;99.90
41987;DHT22;28361;50.740;7.084;2022-10-31T08:49:41;14.50;99.90
41987;DHT22;28361;50.740;7.084;2022-10-31T08:52:07;14.40;99.90
41987;DHT22;28361;50.740;7.084;2022-10-31T08:54:33;14.40;99.90
41987;DHT22;28361;50.740;7.084;2022-10-31T08:56:58;14.50;99.90
41987;DHT22;28361;50.740;7.084;2022-10-31T08:59:24;14.40;99.90
41987;DHT22;28361;50.740;7.084;2022-10-31T09:01:50;14.40;99.90
41987;DHT22;28361;50.740;7.084;2022-10-31T09:04:15;14.40;99.90
41987;DHT22;28361;50.740;7.084;2022-10-31T09:06:41;14.60;99.90
41987;DHT22;28361;50.740;7.084;2022-10-31T09:09:07;14.50;99.90
41987;DHT22;28361;50.740;7.084;2022-10-31T09:11:33;14.60;99.90
41987;DHT22;28361;50.740;7.084;2022-10-31T09:13:58;14.80;99.90
41987;DHT22;28361;50.740;7.084;2022-10-31T09:16:24;14.80;99.90
41987;DHT22;28361;50.740;7.084;2022-10-31T09:18:50;15.00;99.90
41987;DHT22;28361;50.740;7.084;2022-10-31T09:21:16;15.20;99.90
41987;DHT22;28361;50.740;7.084;2022-10-31T09:23:41;15.60;99.90
41987;DHT22;28361;50.740;7.084;2022-10-31T09:26:07;15.90;99.90
41987;DHT22;28361;50.740;7.084;2022-10-31T09:28:33;16.30;99.90
41987;DHT22;28361;50.740;7.084;2022-10-31T09:30:59;16.70;99.90
41987;DHT22;28361;50.740;7.084;2022-10-31T09:33:24;17.10;99.90
41987;DHT22;28361;50.740;7.084;2022-10-31T09:35:50;17.00;99.90
41987;DHT22;28361;50.740;7.084;2022-10-31T09:38:20;17.30;99.90
41987;DHT22;28361;50.740;7.084;2022-10-31T09:51:56;18.80;99.90
41987;DHT22;28361;50.740;7.084;2022-10-31T09:54:33;18.50;99.90
41987;DHT22;28361;50.740;7.084;2022-10-31T09:57:01;18.20;99.90
41987;DHT22;28361;50.740;7.084;2022-10-31T09:59:35;17.90;99.90
41987;DHT22;28361;50.740;7.084;2022-10-31T10:05:12;17.70;99.90
41987;DHT22;28361;50.740;7.084;2022-10-31T10:08:07;17.70;99.90
41987;DHT22;28361;50.740;7.084;2022-10-31T10:10:49;17.90;99.90
41987;DHT22;28361;50.740;7.084;2022-10-31T10:16:25;18.30;99.90
41987;DHT22;28361;50.740;7.084;2022-10-31T10:24:42;17.50;99.90
41987;DHT22;28361;50.740;7.084;2022-10-31T10:30:02;17.00;99.90
41987;DHT22;28361;50.740;7.084;2022-10-31T10:32:31;16.90;99.90
41987;DHT22;28361;50.740;7.084;2022-10-31T10:35:31;16.80;99.90
41987;DHT22;28361;50.740;7.084;2022-10-31T10:40:53;17.10;99.90
41987;DHT22;28361;50.740;7.084;2022-10-31T10:43:34;17.30;99.90
41987;DHT22;28361;50.740;7.084;2022-10-31T10:48:54;18.10;99.90
41987;DHT22;28361;50.740;7.084;2022-10-31T10:51:45;18.10;99.90
41987;DHT22;28361;50.740;7.084;2022-10-31T10:57:00;18.40;99.90
41987;DHT22;28361;50.740;7.084;2022-10-31T10:59:27;18.30;99.90
41987;DHT22;28361;50.740;7.084;2022-10-31T11:01:53;18.00;99.90
41987;DHT22;28361;50.740;7.084;2022-10-31T11:04:32;17.50;99.90
41987;DHT22;28361;50.740;7.084;2022-10-31T11:07:09;17.40;99.90
41987;DHT22;28361;50.740;7.084;2022-10-31T11:09:36;17.40;99.90
41987;DHT22;28361;50.740;7.084;2022-10-31T11:12:30;17.50;99.90
41987;DHT22;28361;50.740;7.084;2022-10-31T11:15:15;17.50;99.90
41987;DHT22;28361;50.740;7.084;2022-10-31T11:17:42;17.80;99.90
41987;DHT22;28361;50.740;7.084;2022-10-31T11:22:41;18.20;99.90
41987;DHT22;28361;50.740;7.084;2022-10-31T11:25:28;18.20;99.90
41987;DHT22;28361;50.740;7.084;2022-10-31T11:28:05;18.20;99.90
41987;DHT22;28361;50.740;7.084;2022-10-31T11:30:46;18.20;99.90
41987;DHT22;28361;50.740;7.084;2022-10-31T11:35:50;18.10;99.90
41987;DHT22;28361;50.740;7.084;2022-10-31T11:38:20;18.20;99.90
41987;DHT22;28361;50.740;7.084;2022-10-31T11:40:58;18.40;99.90
41987;DHT22;28361;50.740;7.084;2022-10-31T11:43:25;18.30;99.90
41987;DHT22;28361;50.740;7.084;2022-10-31T11:45:51;18.50;99.90
41987;DHT22;28361;50.740;7.084;2022-10-31T11:48:23;18.50;99.90
41987;DHT22;28361;50.740;7.084;2022-10-31T11:50:57;18.40;99.90
41987;DHT22;28361;50.740;7.084;2022-10-31T11:53:32;18.30;99.90
41987;DHT22;28361;50.740;7.084;2022-10-31T11:56:12;18.20;99.90
41987;DHT22;28361;50.740;7.084;2022-10-31T11:58:39;18.40;99.90
41987;DHT22;28361;50.740;7.084;2022-10-31T12:01:05;18.50;99.90
41987;DHT22;28361;50.740;7.084;2022-10-31T12:06:37;18.90;99.90
41987;DHT22;28361;50.740;7.084;2022-10-31T12:09:19;18.70;99.90
41987;DHT22;28361;50.740;7.084;2022-10-31T12:23:12;18.60;99.90
41987;DHT22;28361;50.740;7.084;2022-10-31T12:33:52;18.60;99.90
41987;DHT22;28361;50.740;7.084;2022-10-31T12:39:30;18.40;99.90
41987;DHT22;28361;50.740;7.084;2022-10-31T12:42:24;18.30;99.90
41987;DHT22;28361;50.740;7.084;2022-10-31T12:45:34;18.20;99.90
41987;DHT22;28361;50.740;7.084;2022-10-31T13:01:30;18.10;99.90
41987;DHT22;28361;50.740;7.084;2022-10-31T13:06:53;18.10;99.90
41987;DHT22;28361;50.740;7.084;2022-10-31T13:09:30;18.00;99.90
41987;DHT22;28361;50.740;7.084;2022-10-31T13:12:02;18.00;99.90
41987;DHT22;28361;50.740;7.084;2022-10-31T13:14:59;18.10;99.90
41987;DHT22;28361;50.740;7.084;2022-10-31T13:17:51;18.20;99.90
41987;DHT22;28361;50.740;7.084;2022-10-31T13:20:24;18.30;99.90
41987;DHT22;28361;50.740;7.084;2022-10-31T13:22:55;18.30;99.90
41987;DHT22;28361;50.740;7.084;2022-10-31T13:25:25;18.40;99.90
41987;DHT22;28361;50.740;7.084;2022-10-31T13:28:02;18.50;99.90
41987;DHT22;28361;50.740;7.084;2022-10-31T13:30:32;18.50;99.90
41987;DHT22;28361;50.740;7.084;2022-10-31T13:33:10;18.40;99.90
41987;DHT22;28361;50.740;7.084;2022-10-31T13:35:42;18.40;99.90
41987;DHT22;28361;50.740;7.084;2022-10-31T13:38:42;18.40;99.90
41987;DHT22;28361;50.740;7.084;2022-10-31T13:43:59;18.40;99.90
41987;DHT22;28361;50.740;7.084;2022-10-31T13:48:57;18.30;99.90
41987;DHT22;28361;50.740;7.084;2022-10-31T13:51:29;18.10;99.90
41987;DHT22;28361;50.740;7.084;2022-10-31T13:56:29;18.20;99.90
41987;DHT22;28361;50.740;7.084;2022-10-31T13:59:03;18.10;99.90
41987;DHT22;28361;50.740;7.084;2022-10-31T14:01:30;18.10;99.90
41987;DHT22;28361;50.740;7.084;2022-10-31T14:04:31;18.10;99.90
41987;DHT22;28361;50.740;7.084;2022-10-31T14:14:54;18.10;99.90
41987;DHT22;28361;50.740;7.084;2022-10-31T14:17:38;18.00;99.90
41987;DHT22;28361;50.740;7.084;2022-10-31T14:22:37;18.10;99.90
41987;DHT22;28361;50.740;7.084;2022-10-31T14:27:52;17.90;99.90
41987;DHT22;28361;50.740;7.084;2022-10-31T14:30:23;17.90;99.90
41987;DHT22;28361;50.740;7.084;2022-10-31T14:33:01;18.00;99.90
41987;DHT22;28361;50.740;7.084;2022-10-31T14:46:48;17.90;99.90
41987;DHT22;28361;50.740;7.084;2022-10-31T14:51:54;18.10;99.90
41987;DHT22;28361;50.740;7.084;2022-10-31T14:54:29;18.00;99.90
41987;DHT22;28361;50.740;7.084;2022-10-31T14:57:02;18.10;99.90
41987;DHT22;28361;50.740;7.084;2022-10-31T14:59:32;18.10;99.90
41987;DHT22;28361;50.740;7.084;2022-10-31T15:02:07;18.00;99.90
41987;DHT22;28361;50.740;7.084;2022-10-31T15:04:35;18.10;99.90
41987;DHT22;28361;50.740;7.084;2022-10-31T15:07:10;18.10;99.90
41987;DHT22;28361;50.740;7.084;2022-10-31T15:09:37;18.00;99.90
41987;DHT22;28361;50.740;7.084;2022-10-31T15:12:28;18.10;99.90
41987;DHT22;28361;50.740;7.084;2022-10-31T15:14:54;18.10;99.90
41987;DHT22;28361;50.740;7.084;2022-10-31T15:17:25;18.10;99.90
41987;DHT22;28361;50.740;7.084;2022-10-31T15:19:52;18.10;99.90
41987;DHT22;28361;50.740;7.084;2022-10-31T15:22:20;18.10;99.90
41987;DHT22;28361;50.740;7.084;2022-10-31T15:24:49;18.10;99.90
41987;DHT22;28361;50.740;7.084;2022-10-31T15:27:22;18.10;99.90
41987;DHT22;28361;50.740;7.084;2022-10-31T15:29:56;18.10;99.90
41987;DHT22;28361;50.740;7.084;2022-10-31T15:32:29;18.10;99.90
41987;DHT22;28361;50.740;7.084;2022-10-31T15:34:55;18.10;99.90
41987;DHT22;28361;50.740;7.084;2022-10-31T15:37:23;18.10;99.90
41987;DHT22;28361;50.740;7.084;2022-10-31T15:39:51;18.10;99.90
41987;DHT22;28361;50.740;7.084;2022-10-31T15:43:02;18.10;99.90
41987;DHT22;28361;50.740;7.084;2022-10-31T15:45:25;18.10;99.90
41987;DHT22;28361;50.740;7.084;2022-10-31T15:48:04;18.10;99.90
41987;DHT22;28361;50.740;7.084;2022-10-31T15:50:41;18.10;99.90
41987;DHT22;28361;50.740;7.084;2022-10-31T15:53:19;18.00;99.90
41987;DHT22;28361;50.740;7.084;2022-10-31T15:55:54;17.90;99.90
41987;DHT22;28361;50.740;7.084;2022-10-31T15:58:21;17.90;99.90
41987;DHT22;28361;50.740;7.084;2022-10-31T16:01:05;17.80;99.90
41987;DHT22;28361;50.740;7.084;2022-10-31T16:03:32;17.90;99.90
41987;DHT22;28361;50.740;7.084;2022-10-31T16:06:00;17.80;99.90
41987;DHT22;28361;50.740;7.084;2022-10-31T16:10:57;17.70;99.90
41987;DHT22;28361;50.740;7.084;2022-10-31T16:13:32;17.60;99.90
41987;DHT22;28361;50.740;7.084;2022-10-31T16:16:13;17.70;99.90
41987;DHT22;28361;50.740;7.084;2022-10-31T16:18:41;17.70;99.90
41987;DHT22;28361;50.740;7.084;2022-10-31T16:21:08;17.60;99.90
41987;DHT22;28361;50.740;7.084;2022-10-31T16:23:35;17.50;99.90
41987;DHT22;28361;50.740;7.084;2022-10-31T16:26:06;17.50;99.90
41987;DHT22;28361;50.740;7.084;2022-10-31T16:28:32;17.60;99.90
41987;DHT22;28361;50.740;7.084;2022-10-31T16:30:59;17.60;99.90
41987;DHT22;28361;50.740;7.084;2022-10-31T16:33:30;17.70;99.90
41987;DHT22;28361;50.740;7.084;2022-10-31T16:36:13;17.70;99.90
41987;DHT22;28361;50.740;7.084;2022-10-31T16:38:46;17.70;99.90
41987;DHT22;28361;50.740;7.084;2022-10-31T16:41:12;17.60;99.90
41987;DHT22;28361;50.740;7.084;2022-10-31T16:43:38;17.60;99.90
41987;DHT22;28361;50.740;7.084;2022-10-31T16:46:04;17.60;99.90
41987;DHT22;28361;50.740;7.084;2022-10-31T16:48:29;17.60;99.90
41987;DHT22;28361;50.740;7.084;2022-10-31T16:50:55;17.50;99.90
41987;DHT22;28361;50.740;7.084;2022-10-31T16:53:21;17.50;99.90
41987;DHT22;28361;50.740;7.084;2022-10-31T16:55:52;17.40;99.90
41987;DHT22;28361;50.740;7.084;2022-10-31T16:58:24;17.50;99.90
41987;DHT22;28361;50.740;7.084;2022-10-31T17:00:51;17.40;99.90
41987;DHT22;28361;50.740;7.084;2022-10-31T17:03:17;17.40;99.90
41987;DHT22;28361;50.740;7.084;2022-10-31T17:05:42;17.30;99.90
41987;DHT22;28361;50.740;7.084;2022-10-31T17:08:08;17.40;99.90
41987;DHT22;28361;50.740;7.084;2022-10-31T17:10:34;17.30;99.90
41987;DHT22;28361;50.740;7.084;2022-10-31T17:13:02;17.20;99.90
41987;DHT22;28361;50.740;7.084;2022-10-31T17:15:31;17.20;99.90
41987;DHT22;28361;50.740;7.084;2022-10-31T17:17:58;17.20;99.90
41987;DHT22;28361;50.740;7.084;2022-10-31T17:20:26;17.30;99.90
41987;DHT22;28361;50.740;7.084;2022-10-31T17:22:52;17.30;99.90
41987;DHT22;28361;50.740;7.084;2022-10-31T17:25:21;17.30;99.90
41987;DHT22;28361;50.740;7.084;2022-10-31T17:27:48;17.30;99.90
41987;DHT22;28361;50.740;7.084;2022-10-31T17:30:14;17.20;99.90
41987;DHT22;28361;50.740;7.084;2022-10-31T17:32:41;17.20;99.90
41987;DHT22;28361;50.740;7.084;2022-10-31T17:35:08;17.20;99.90
41987;DHT22;28361;50.740;7.084;2022-10-31T17:37:34;17.20;99.90
41987;DHT22;28361;50.740;7.084;2022-10-31T17:40:00;17.00;99.90
41987;DHT22;28361;50.740;7.084;2022-10-31T17:42:25;17.10;99.90
41987;DHT22;28361;50.740;7.084;2022-10-31T17:44:51;17.10;99.90
41987;DHT22;28361;50.740;7.084;2022-10-31T17:47:17;17.00;99.90
41987;DHT22;28361;50.740;7.084;2022-10-31T17:49:43;17.00;99.90
41987;DHT22;28361;50.740;7.084;2022-10-31T17:52:09;17.00;99.90
41987;DHT22;28361;50.740;7.084;2022-10-31T17:54:35;16.90;99.90
41987;DHT22;28361;50.740;7.084;2022-10-31T17:57:00;17.00;99.90
41987;DHT22;28361;50.740;7.084;2022-10-31T17:59:26;16.90;99.90
41987;DHT22;28361;50.740;7.084;2022-10-31T18:01:55;16.80;99.90
41987;DHT22;28361;50.740;7.084;2022-10-31T18:04:21;16.90;99.90
41987;DHT22;28361;50.740;7.084;2022-10-31T18:06:47;16.80;99.90
41987;DHT22;28361;50.740;7.084;2022-10-31T18:09:15;16.80;99.90
41987;DHT22;28361;50.740;7.084;2022-10-31T18:11:42;16.80;99.90
41987;DHT22;28361;50.740;7.084;2022-10-31T18:14:09;16.80;99.90